Airfield :







YOU CAN JOIN US ON...

 
LOGIN :

Register | Disclaimer

   EN    FR    IT 

 









Legend :    VFR   Marginal VFR   IFR   Intensive IFR   Very Intensive IFR
Visi :
Ceiling :
>= 8 km
>= 3000ft
5 to 8 km
1000 to 3000 ft
1500m to 5 km
500 to 1000 ft
800 to 1500m
200 to 500 ft
< 800m
< 200 ft
Symbols :   Thunderstorms  Fog  Heavy snow  Heavy precipitations  Wind > 20 kt







- Airport Elevation : 180 ft
- IATA code : YZV


CYZV - Sept-Iles

CURRENT METAR :
  • 230600Z 03003KT 15SM SKC 00/M09 A3033 RMK SLP275

EXPIRED METARs :
  • 230500Z 01005KT 15SM SKC M00/M08 A3033 RMK SLP275
  • 230400Z 03004KT 15SM SKC 01/M08 A3032 RMK SLP272

TAF TAF CYZV
Valid from the 23 at 06:00 until the 24 at 06:00 UTC


230538Z 2306/2406 01008KT P6SM SKC
BECMG 2313/2315 11012KT
FM231700 09012KT P6SM BKN150
BECMG 2322/2324 09012G22KT RMK NXT FCST BY 231200Z
CZUL FIR / North America



MET'MAP, your aeronautical weather chart ! - Copyright ORBIFLY December 2007 - Disclaimer

ORBIFLY MET'MAP TEAM :

Programming & Development : Alexandra Zaïnal
Concept & Development : Baudouin d'Aumeries
Co-Development & Prog : Marc-Olivier Méhu
Technical & hardware support : Manuel Goepfert

Contact : metmap@orbifly.com




SOURCES & CREDITS :

   NOAA